sensor_id;sensor_type;location;lat;lon;timestamp;P1;durP1;ratioP1;P2;durP2;ratioP2
3217;SDS011;1621;49.702;8.618;2023-03-12T00:02:15;10.13;;;5.80;;
3217;SDS011;1621;49.702;8.618;2023-03-12T00:04:41;5.93;;;4.30;;
3217;SDS011;1621;49.702;8.618;2023-03-12T00:07:09;6.97;;;3.43;;
3217;SDS011;1621;49.702;8.618;2023-03-12T00:09:36;5.00;;;2.43;;
3217;SDS011;1621;49.702;8.618;2023-03-12T00:12:03;5.77;;;1.80;;
3217;SDS011;1621;49.702;8.618;2023-03-12T00:14:29;5.80;;;2.20;;
3217;SDS011;1621;49.702;8.618;2023-03-12T00:16:55;4.90;;;2.13;;
3217;SDS011;1621;49.702;8.618;2023-03-12T00:19:22;6.20;;;2.60;;
3217;SDS011;1621;49.702;8.618;2023-03-12T00:21:48;2.80;;;1.73;;
3217;SDS011;1621;49.702;8.618;2023-03-12T00:24:16;5.90;;;2.20;;
3217;SDS011;1621;49.702;8.618;2023-03-12T00:26:42;2.50;;;1.50;;
3217;SDS011;1621;49.702;8.618;2023-03-12T00:29:08;2.83;;;1.90;;
3217;SDS011;1621;49.702;8.618;2023-03-12T00:31:35;3.30;;;1.70;;
3217;SDS011;1621;49.702;8.618;2023-03-12T00:34:01;3.80;;;2.10;;
3217;SDS011;1621;49.702;8.618;2023-03-12T00:36:28;2.57;;;1.50;;
3217;SDS011;1621;49.702;8.618;2023-03-12T00:38:55;3.87;;;1.60;;
3217;SDS011;1621;49.702;8.618;2023-03-12T00:41:23;4.23;;;1.73;;
3217;SDS011;1621;49.702;8.618;2023-03-12T00:43:50;3.40;;;1.53;;
3217;SDS011;1621;49.702;8.618;2023-03-12T00:46:16;5.63;;;2.10;;
3217;SDS011;1621;49.702;8.618;2023-03-12T00:48:43;4.43;;;1.50;;
3217;SDS011;1621;49.702;8.618;2023-03-12T00:51:09;6.53;;;1.87;;
3217;SDS011;1621;49.702;8.618;2023-03-12T00:53:36;5.30;;;1.70;;
3217;SDS011;1621;49.702;8.618;2023-03-12T00:56:02;6.60;;;1.53;;
3217;SDS011;1621;49.702;8.618;2023-03-12T00:58:30;4.27;;;1.73;;
3217;SDS011;1621;49.702;8.618;2023-03-12T01:00:56;3.43;;;1.67;;
3217;SDS011;1621;49.702;8.618;2023-03-12T01:03:23;4.20;;;2.07;;
3217;SDS011;1621;49.702;8.618;2023-03-12T01:05:50;3.77;;;2.00;;
3217;SDS011;1621;49.702;8.618;2023-03-12T01:08:19;6.63;;;2.27;;
3217;SDS011;1621;49.702;8.618;2023-03-12T01:10:46;3.87;;;1.57;;
3217;SDS011;1621;49.702;8.618;2023-03-12T01:13:12;3.83;;;1.50;;
3217;SDS011;1621;49.702;8.618;2023-03-12T01:15:40;4.13;;;1.80;;
3217;SDS011;1621;49.702;8.618;2023-03-12T01:18:06;3.20;;;1.80;;
3217;SDS011;1621;49.702;8.618;2023-03-12T01:20:32;3.77;;;1.70;;
3217;SDS011;1621;49.702;8.618;2023-03-12T01:22:59;5.23;;;1.40;;
3217;SDS011;1621;49.702;8.618;2023-03-12T01:25:25;5.00;;;2.10;;
3217;SDS011;1621;49.702;8.618;2023-03-12T01:27:51;9.03;;;2.23;;
3217;SDS011;1621;49.702;8.618;2023-03-12T01:30:17;3.67;;;1.70;;
3217;SDS011;1621;49.702;8.618;2023-03-12T01:32:45;3.57;;;2.10;;
3217;SDS011;1621;49.702;8.618;2023-03-12T01:35:11;4.10;;;2.10;;
3217;SDS011;1621;49.702;8.618;2023-03-12T01:37:38;4.23;;;1.87;;
3217;SDS011;1621;49.702;8.618;2023-03-12T01:40:04;3.73;;;1.73;;
3217;SDS011;1621;49.702;8.618;2023-03-12T01:42:31;4.10;;;2.23;;
3217;SDS011;1621;49.702;8.618;2023-03-12T01:44:58;3.83;;;1.90;;
3217;SDS011;1621;49.702;8.618;2023-03-12T01:47:25;3.40;;;1.90;;
3217;SDS011;1621;49.702;8.618;2023-03-12T01:49:53;3.90;;;2.20;;
3217;SDS011;1621;49.702;8.618;2023-03-12T01:52:21;4.70;;;2.57;;
3217;SDS011;1621;49.702;8.618;2023-03-12T01:54:48;3.50;;;2.07;;
3217;SDS011;1621;49.702;8.618;2023-03-12T01:57:16;2.70;;;1.80;;
3217;SDS011;1621;49.702;8.618;2023-03-12T01:59:44;4.70;;;1.83;;
3217;SDS011;1621;49.702;8.618;2023-03-12T02:02:11;3.00;;;1.77;;
3217;SDS011;1621;49.702;8.618;2023-03-12T02:04:38;4.70;;;2.60;;
3217;SDS011;1621;49.702;8.618;2023-03-12T02:07:08;4.73;;;2.80;;
3217;SDS011;1621;49.702;8.618;2023-03-12T02:09:37;5.67;;;2.30;;
3217;SDS011;1621;49.702;8.618;2023-03-12T02:12:05;2.93;;;1.87;;
3217;SDS011;1621;49.702;8.618;2023-03-12T02:14:31;4.07;;;2.43;;
3217;SDS011;1621;49.702;8.618;2023-03-12T02:16:58;4.30;;;1.87;;
3217;SDS011;1621;49.702;8.618;2023-03-12T02:19:26;5.47;;;2.57;;
3217;SDS011;1621;49.702;8.618;2023-03-12T02:21:55;2.93;;;1.90;;
3217;SDS011;1621;49.702;8.618;2023-03-12T02:24:26;6.30;;;2.63;;
3217;SDS011;1621;49.702;8.618;2023-03-12T02:26:56;5.10;;;2.70;;
3217;SDS011;1621;49.702;8.618;2023-03-12T02:29:23;7.07;;;3.00;;
3217;SDS011;1621;49.702;8.618;2023-03-12T02:31:51;6.40;;;3.00;;
3217;SDS011;1621;49.702;8.618;2023-03-12T02:34:18;4.40;;;2.50;;
3217;SDS011;1621;49.702;8.618;2023-03-12T02:36:44;7.77;;;2.80;;
3217;SDS011;1621;49.702;8.618;2023-03-12T02:39:11;8.47;;;3.07;;
3217;SDS011;1621;49.702;8.618;2023-03-12T02:41:38;3.70;;;2.60;;
3217;SDS011;1621;49.702;8.618;2023-03-12T02:44:07;4.47;;;2.37;;
3217;SDS011;1621;49.702;8.618;2023-03-12T02:46:36;4.97;;;2.70;;
3217;SDS011;1621;49.702;8.618;2023-03-12T02:49:03;7.00;;;2.90;;
3217;SDS011;1621;49.702;8.618;2023-03-12T02:51:29;7.83;;;2.73;;
3217;SDS011;1621;49.702;8.618;2023-03-12T02:53:55;3.60;;;2.20;;
3217;SDS011;1621;49.702;8.618;2023-03-12T02:56:22;4.20;;;2.50;;
3217;SDS011;1621;49.702;8.618;2023-03-12T02:58:48;7.57;;;2.67;;
3217;SDS011;1621;49.702;8.618;2023-03-12T03:01:16;7.13;;;3.13;;
3217;SDS011;1621;49.702;8.618;2023-03-12T03:03:43;4.53;;;3.00;;
3217;SDS011;1621;49.702;8.618;2023-03-12T03:06:09;5.77;;;2.80;;
3217;SDS011;1621;49.702;8.618;2023-03-12T03:08:36;5.27;;;2.60;;
3217;SDS011;1621;49.702;8.618;2023-03-12T03:11:02;10.00;;;3.10;;
3217;SDS011;1621;49.702;8.618;2023-03-12T03:13:28;6.17;;;2.73;;
3217;SDS011;1621;49.702;8.618;2023-03-12T03:15:55;4.47;;;3.10;;
3217;SDS011;1621;49.702;8.618;2023-03-12T03:18:25;4.37;;;2.63;;
3217;SDS011;1621;49.702;8.618;2023-03-12T03:20:54;6.20;;;2.77;;
3217;SDS011;1621;49.702;8.618;2023-03-12T03:23:20;5.73;;;2.80;;
3217;SDS011;1621;49.702;8.618;2023-03-12T03:25:46;4.47;;;2.50;;
3217;SDS011;1621;49.702;8.618;2023-03-12T03:28:13;4.30;;;1.90;;
3217;SDS011;1621;49.702;8.618;2023-03-12T03:30:39;4.00;;;2.10;;
3217;SDS011;1621;49.702;8.618;2023-03-12T03:33:05;6.33;;;1.80;;
3217;SDS011;1621;49.702;8.618;2023-03-12T03:35:33;5.07;;;1.77;;
3217;SDS011;1621;49.702;8.618;2023-03-12T03:38:00;3.33;;;1.80;;
3217;SDS011;1621;49.702;8.618;2023-03-12T03:40:26;7.03;;;2.10;;
3217;SDS011;1621;49.702;8.618;2023-03-12T03:42:52;3.53;;;1.87;;
3217;SDS011;1621;49.702;8.618;2023-03-12T03:45:18;5.03;;;2.27;;
3217;SDS011;1621;49.702;8.618;2023-03-12T03:47:45;6.13;;;2.57;;
3217;SDS011;1621;49.702;8.618;2023-03-12T03:50:11;5.93;;;2.20;;
3217;SDS011;1621;49.702;8.618;2023-03-12T03:52:39;3.23;;;1.80;;
3217;SDS011;1621;49.702;8.618;2023-03-12T03:55:05;3.23;;;2.03;;
3217;SDS011;1621;49.702;8.618;2023-03-12T03:57:32;8.73;;;2.03;;
3217;SDS011;1621;49.702;8.618;2023-03-12T03:59:58;10.00;;;3.20;;
3217;SDS011;1621;49.702;8.618;2023-03-12T04:02:24;5.17;;;2.90;;
3217;SDS011;1621;49.702;8.618;2023-03-12T04:04:51;4.97;;;2.90;;
3217;SDS011;1621;49.702;8.618;2023-03-12T04:07:18;4.13;;;2.60;;
3217;SDS011;1621;49.702;8.618;2023-03-12T04:09:46;6.93;;;3.30;;
3217;SDS011;1621;49.702;8.618;2023-03-12T04:12:13;6.93;;;3.10;;
3217;SDS011;1621;49.702;8.618;2023-03-12T04:14:39;7.03;;;3.70;;
3217;SDS011;1621;49.702;8.618;2023-03-12T04:17:06;5.50;;;2.87;;
3217;SDS011;1621;49.702;8.618;2023-03-12T04:19:32;5.63;;;3.53;;
3217;SDS011;1621;49.702;8.618;2023-03-12T04:21:59;3.97;;;2.83;;
3217;SDS011;1621;49.702;8.618;2023-03-12T04:24:25;9.17;;;2.70;;
3217;SDS011;1621;49.702;8.618;2023-03-12T04:26:53;4.80;;;3.10;;
3217;SDS011;1621;49.702;8.618;2023-03-12T04:29:19;5.77;;;3.00;;
3217;SDS011;1621;49.702;8.618;2023-03-12T04:31:45;3.60;;;2.43;;
3217;SDS011;1621;49.702;8.618;2023-03-12T04:34:11;7.03;;;3.20;;
3217;SDS011;1621;49.702;8.618;2023-03-12T04:36:38;5.27;;;3.17;;
3217;SDS011;1621;49.702;8.618;2023-03-12T04:39:04;6.27;;;3.13;;
3217;SDS011;1621;49.702;8.618;2023-03-12T04:41:31;4.93;;;2.80;;
3217;SDS011;1621;49.702;8.618;2023-03-12T04:43:59;5.50;;;3.23;;
3217;SDS011;1621;49.702;8.618;2023-03-12T04:46:25;6.40;;;2.60;;
3217;SDS011;1621;49.702;8.618;2023-03-12T04:48:51;6.50;;;3.43;;
3217;SDS011;1621;49.702;8.618;2023-03-12T04:51:18;6.47;;;2.73;;
3217;SDS011;1621;49.702;8.618;2023-03-12T04:53:44;5.77;;;2.73;;
3217;SDS011;1621;49.702;8.618;2023-03-12T04:56:11;4.10;;;2.70;;
3217;SDS011;1621;49.702;8.618;2023-03-12T04:58:37;8.83;;;3.70;;
3217;SDS011;1621;49.702;8.618;2023-03-12T05:01:05;5.73;;;2.97;;
3217;SDS011;1621;49.702;8.618;2023-03-12T05:03:31;9.87;;;2.50;;
3217;SDS011;1621;49.702;8.618;2023-03-12T05:05:58;5.57;;;2.90;;
3217;SDS011;1621;49.702;8.618;2023-03-12T05:08:24;2.70;;;2.00;;
3217;SDS011;1621;49.702;8.618;2023-03-12T05:10:50;4.60;;;2.20;;
3217;SDS011;1621;49.702;8.618;2023-03-12T05:13:17;3.40;;;2.00;;
3217;SDS011;1621;49.702;8.618;2023-03-12T05:15:44;5.13;;;2.20;;
3217;SDS011;1621;49.702;8.618;2023-03-12T05:18:12;4.63;;;2.13;;
3217;SDS011;1621;49.702;8.618;2023-03-12T05:20:39;5.37;;;2.40;;
3217;SDS011;1621;49.702;8.618;2023-03-12T05:23:05;5.47;;;2.57;;
3217;SDS011;1621;49.702;8.618;2023-03-12T05:25:31;3.37;;;2.20;;
3217;SDS011;1621;49.702;8.618;2023-03-12T05:27:58;5.13;;;2.30;;
3217;SDS011;1621;49.702;8.618;2023-03-12T05:30:24;5.37;;;2.90;;
3217;SDS011;1621;49.702;8.618;2023-03-12T05:32:50;6.20;;;3.80;;
3217;SDS011;1621;49.702;8.618;2023-03-12T05:35:18;4.73;;;3.20;;
3217;SDS011;1621;49.702;8.618;2023-03-12T05:37:44;5.70;;;3.93;;
3217;SDS011;1621;49.702;8.618;2023-03-12T05:40:11;7.90;;;4.20;;
3217;SDS011;1621;49.702;8.618;2023-03-12T05:42:37;7.40;;;4.40;;
3217;SDS011;1621;49.702;8.618;2023-03-12T05:45:04;5.50;;;4.03;;
3217;SDS011;1621;49.702;8.618;2023-03-12T05:47:31;7.60;;;4.37;;
3217;SDS011;1621;49.702;8.618;2023-03-12T05:49:57;11.00;;;4.40;;
3217;SDS011;1621;49.702;8.618;2023-03-12T05:52:24;7.70;;;5.30;;
3217;SDS011;1621;49.702;8.618;2023-03-12T05:54:51;7.93;;;4.90;;
3217;SDS011;1621;49.702;8.618;2023-03-12T05:57:17;9.57;;;4.87;;
3217;SDS011;1621;49.702;8.618;2023-03-12T05:59:43;9.57;;;5.20;;
3217;SDS011;1621;49.702;8.618;2023-03-12T06:02:09;6.87;;;4.77;;
3217;SDS011;1621;49.702;8.618;2023-03-12T06:04:36;7.20;;;4.80;;
3217;SDS011;1621;49.702;8.618;2023-03-12T06:07:02;9.60;;;5.40;;
3217;SDS011;1621;49.702;8.618;2023-03-12T06:09:30;6.47;;;4.40;;
3217;SDS011;1621;49.702;8.618;2023-03-12T06:11:56;8.63;;;4.20;;
3217;SDS011;1621;49.702;8.618;2023-03-12T06:14:22;11.50;;;5.10;;
3217;SDS011;1621;49.702;8.618;2023-03-12T06:16:49;8.20;;;4.70;;
3217;SDS011;1621;49.702;8.618;2023-03-12T06:19:15;10.83;;;4.93;;
3217;SDS011;1621;49.702;8.618;2023-03-12T06:21:42;6.50;;;4.57;;
3217;SDS011;1621;49.702;8.618;2023-03-12T06:24:08;5.27;;;3.80;;
3217;SDS011;1621;49.702;8.618;2023-03-12T06:26:36;5.57;;;3.70;;
3217;SDS011;1621;49.702;8.618;2023-03-12T06:29:02;6.40;;;4.13;;
3217;SDS011;1621;49.702;8.618;2023-03-12T06:31:29;5.30;;;3.70;;
3217;SDS011;1621;49.702;8.618;2023-03-12T06:33:55;6.13;;;4.17;;
3217;SDS011;1621;49.702;8.618;2023-03-12T06:36:21;7.70;;;3.57;;
3217;SDS011;1621;49.702;8.618;2023-03-12T06:38:48;5.77;;;3.87;;
3217;SDS011;1621;49.702;8.618;2023-03-12T06:41:15;7.57;;;3.20;;
3217;SDS011;1621;49.702;8.618;2023-03-12T06:43:43;5.73;;;3.93;;
3217;SDS011;1621;49.702;8.618;2023-03-12T06:46:10;6.87;;;4.10;;
3217;SDS011;1621;49.702;8.618;2023-03-12T06:48:37;6.77;;;3.40;;
3217;SDS011;1621;49.702;8.618;2023-03-12T06:51:05;5.33;;;3.73;;
3217;SDS011;1621;49.702;8.618;2023-03-12T06:53:32;5.17;;;3.60;;
3217;SDS011;1621;49.702;8.618;2023-03-12T06:55:58;5.87;;;3.27;;
3217;SDS011;1621;49.702;8.618;2023-03-12T06:58:24;7.20;;;4.17;;
3217;SDS011;1621;49.702;8.618;2023-03-12T07:00:52;9.50;;;2.97;;
3217;SDS011;1621;49.702;8.618;2023-03-12T07:03:18;6.30;;;3.40;;
3217;SDS011;1621;49.702;8.618;2023-03-12T07:05:45;6.63;;;3.70;;
3217;SDS011;1621;49.702;8.618;2023-03-12T07:08:12;7.23;;;3.60;;
3217;SDS011;1621;49.702;8.618;2023-03-12T07:10:38;7.97;;;3.40;;
3217;SDS011;1621;49.702;8.618;2023-03-12T07:13:05;7.10;;;3.93;;
3217;SDS011;1621;49.702;8.618;2023-03-12T07:15:31;8.27;;;3.73;;
3217;SDS011;1621;49.702;8.618;2023-03-12T07:17:59;9.40;;;3.43;;
3217;SDS011;1621;49.702;8.618;2023-03-12T07:20:26;10.60;;;4.30;;
3217;SDS011;1621;49.702;8.618;2023-03-12T07:22:52;10.33;;;4.10;;
3217;SDS011;1621;49.702;8.618;2023-03-12T07:25:18;6.27;;;3.93;;
3217;SDS011;1621;49.702;8.618;2023-03-12T07:27:45;7.20;;;4.50;;
3217;SDS011;1621;49.702;8.618;2023-03-12T07:30:11;6.70;;;4.53;;
3217;SDS011;1621;49.702;8.618;2023-03-12T07:32:37;8.27;;;4.57;;
3217;SDS011;1621;49.702;8.618;2023-03-12T07:35:05;7.60;;;4.70;;
3217;SDS011;1621;49.702;8.618;2023-03-12T07:37:32;10.90;;;6.20;;
3217;SDS011;1621;49.702;8.618;2023-03-12T07:39:58;8.13;;;5.30;;
3217;SDS011;1621;49.702;8.618;2023-03-12T07:42:24;8.73;;;5.50;;
3217;SDS011;1621;49.702;8.618;2023-03-12T07:44:50;7.97;;;5.60;;
3217;SDS011;1621;49.702;8.618;2023-03-12T07:47:17;8.43;;;6.37;;
3217;SDS011;1621;49.702;8.618;2023-03-12T07:49:43;8.50;;;5.57;;
3217;SDS011;1621;49.702;8.618;2023-03-12T07:52:11;7.77;;;6.47;;
3217;SDS011;1621;49.702;8.618;2023-03-12T07:54:37;7.77;;;6.13;;
3217;SDS011;1621;49.702;8.618;2023-03-12T07:57:03;11.60;;;6.83;;
3217;SDS011;1621;49.702;8.618;2023-03-12T07:59:30;11.97;;;7.53;;
3217;SDS011;1621;49.702;8.618;2023-03-12T08:01:56;10.27;;;7.30;;
3217;SDS011;1621;49.702;8.618;2023-03-12T08:04:22;14.10;;;7.23;;
3217;SDS011;1621;49.702;8.618;2023-03-12T08:06:48;11.07;;;7.50;;
3217;SDS011;1621;49.702;8.618;2023-03-12T08:09:16;8.37;;;6.33;;
3217;SDS011;1621;49.702;8.618;2023-03-12T08:11:42;10.23;;;6.90;;
3217;SDS011;1621;49.702;8.618;2023-03-12T08:14:09;7.20;;;6.10;;
3217;SDS011;1621;49.702;8.618;2023-03-12T08:16:35;9.73;;;5.97;;
3217;SDS011;1621;49.702;8.618;2023-03-12T08:19:01;9.40;;;7.03;;
3217;SDS011;1621;49.702;8.618;2023-03-12T08:21:27;12.10;;;8.80;;
3217;SDS011;1621;49.702;8.618;2023-03-12T08:23:54;12.20;;;9.07;;
3217;SDS011;1621;49.702;8.618;2023-03-12T08:26:21;19.30;;;10.40;;
3217;SDS011;1621;49.702;8.618;2023-03-12T08:28:47;13.57;;;9.23;;
3217;SDS011;1621;49.702;8.618;2023-03-12T08:31:14;18.10;;;9.47;;
3217;SDS011;1621;49.702;8.618;2023-03-12T08:33:40;13.00;;;9.53;;
3217;SDS011;1621;49.702;8.618;2023-03-12T08:36:07;15.43;;;10.23;;
3217;SDS011;1621;49.702;8.618;2023-03-12T08:38:34;14.67;;;9.50;;
3217;SDS011;1621;49.702;8.618;2023-03-12T08:41:00;11.83;;;9.30;;
3217;SDS011;1621;49.702;8.618;2023-03-12T08:43:28;12.33;;;8.60;;
3217;SDS011;1621;49.702;8.618;2023-03-12T08:45:55;11.97;;;8.43;;
3217;SDS011;1621;49.702;8.618;2023-03-12T08:48:21;12.07;;;7.70;;
3217;SDS011;1621;49.702;8.618;2023-03-12T08:50:47;10.63;;;7.80;;
3217;SDS011;1621;49.702;8.618;2023-03-12T08:53:14;9.93;;;8.60;;
3217;SDS011;1621;49.702;8.618;2023-03-12T08:55:40;11.20;;;8.70;;
3217;SDS011;1621;49.702;8.618;2023-03-12T08:58:06;13.13;;;8.70;;
3217;SDS011;1621;49.702;8.618;2023-03-12T09:00:34;12.93;;;10.03;;
3217;SDS011;1621;49.702;8.618;2023-03-12T09:03:00;15.37;;;9.20;;
3217;SDS011;1621;49.702;8.618;2023-03-12T09:05:26;16.73;;;10.50;;
3217;SDS011;1621;49.702;8.618;2023-03-12T09:07:54;14.53;;;9.63;;
3217;SDS011;1621;49.702;8.618;2023-03-12T09:10:20;13.47;;;10.53;;
3217;SDS011;1621;49.702;8.618;2023-03-12T09:12:46;12.27;;;9.70;;
3217;SDS011;1621;49.702;8.618;2023-03-12T09:15:12;10.20;;;9.03;;
3217;SDS011;1621;49.702;8.618;2023-03-12T09:17:40;14.70;;;10.10;;
3217;SDS011;1621;49.702;8.618;2023-03-12T09:20:08;15.83;;;9.50;;
3217;SDS011;1621;49.702;8.618;2023-03-12T09:22:38;14.60;;;10.50;;
3217;SDS011;1621;49.702;8.618;2023-03-12T09:25:05;11.90;;;10.10;;
3217;SDS011;1621;49.702;8.618;2023-03-12T09:27:34;11.03;;;9.23;;
3217;SDS011;1621;49.702;8.618;2023-03-12T09:30:00;15.60;;;9.63;;
3217;SDS011;1621;49.702;8.618;2023-03-12T09:32:26;10.63;;;8.07;;
3217;SDS011;1621;49.702;8.618;2023-03-12T09:34:54;12.10;;;9.30;;
3217;SDS011;1621;49.702;8.618;2023-03-12T09:37:20;11.03;;;8.13;;
3217;SDS011;1621;49.702;8.618;2023-03-12T09:39:48;10.60;;;8.30;;
3217;SDS011;1621;49.702;8.618;2023-03-12T09:42:17;12.30;;;10.33;;
3217;SDS011;1621;49.702;8.618;2023-03-12T09:44:45;11.87;;;8.63;;
3217;SDS011;1621;49.702;8.618;2023-03-12T09:47:14;14.73;;;10.53;;
3217;SDS011;1621;49.702;8.618;2023-03-12T09:49:42;11.83;;;9.47;;
3217;SDS011;1621;49.702;8.618;2023-03-12T09:52:15;11.50;;;8.10;;
3217;SDS011;1621;49.702;8.618;2023-03-12T09:54:43;14.80;;;9.50;;
3217;SDS011;1621;49.702;8.618;2023-03-12T09:57:11;11.77;;;9.40;;
3217;SDS011;1621;49.702;8.618;2023-03-12T09:59:39;20.20;;;9.37;;
3217;SDS011;1621;49.702;8.618;2023-03-12T10:02:11;13.80;;;9.47;;
3217;SDS011;1621;49.702;8.618;2023-03-12T10:04:42;13.67;;;10.83;;
3217;SDS011;1621;49.702;8.618;2023-03-12T10:07:13;14.50;;;9.30;;
3217;SDS011;1621;49.702;8.618;2023-03-12T10:09:58;15.30;;;9.37;;
3217;SDS011;1621;49.702;8.618;2023-03-12T10:12:29;15.73;;;9.37;;
3217;SDS011;1621;49.702;8.618;2023-03-12T10:15:01;12.00;;;8.40;;
3217;SDS011;1621;49.702;8.618;2023-03-12T10:17:34;12.67;;;8.40;;
3217;SDS011;1621;49.702;8.618;2023-03-12T10:20:07;11.40;;;9.00;;
3217;SDS011;1621;49.702;8.618;2023-03-12T10:22:45;10.67;;;7.90;;
3217;SDS011;1621;49.702;8.618;2023-03-12T10:25:18;14.70;;;8.97;;
3217;SDS011;1621;49.702;8.618;2023-03-12T10:27:46;10.50;;;8.80;;
3217;SDS011;1621;49.702;8.618;2023-03-12T10:30:15;12.90;;;10.40;;
3217;SDS011;1621;49.702;8.618;2023-03-12T10:32:43;13.63;;;8.87;;
3217;SDS011;1621;49.702;8.618;2023-03-12T10:35:16;20.00;;;10.30;;
3217;SDS011;1621;49.702;8.618;2023-03-12T10:37:42;13.70;;;10.70;;
3217;SDS011;1621;49.702;8.618;2023-03-12T10:40:11;18.33;;;12.10;;
3217;SDS011;1621;49.702;8.618;2023-03-12T10:42:39;15.37;;;11.83;;
3217;SDS011;1621;49.702;8.618;2023-03-12T10:45:12;13.77;;;12.00;;
3217;SDS011;1621;49.702;8.618;2023-03-12T10:47:41;15.70;;;13.57;;
3217;SDS011;1621;49.702;8.618;2023-03-12T10:50:12;14.20;;;12.20;;
3217;SDS011;1621;49.702;8.618;2023-03-12T10:52:39;15.30;;;12.37;;
3217;SDS011;1621;49.702;8.618;2023-03-12T10:55:09;19.27;;;13.57;;
3217;SDS011;1621;49.702;8.618;2023-03-12T10:57:37;17.60;;;13.50;;
3217;SDS011;1621;49.702;8.618;2023-03-12T11:00:06;13.27;;;11.87;;
3217;SDS011;1621;49.702;8.618;2023-03-12T11:02:36;17.30;;;13.60;;
3217;SDS011;1621;49.702;8.618;2023-03-12T11:05:08;18.30;;;14.80;;
3217;SDS011;1621;49.702;8.618;2023-03-12T11:07:43;20.50;;;14.80;;
3217;SDS011;1621;49.702;8.618;2023-03-12T11:10:17;18.57;;;14.20;;
3217;SDS011;1621;49.702;8.618;2023-03-12T11:12:51;15.30;;;12.20;;
3217;SDS011;1621;49.702;8.618;2023-03-12T11:15:20;17.33;;;13.93;;
3217;SDS011;1621;49.702;8.618;2023-03-12T11:17:47;15.03;;;13.33;;
3217;SDS011;1621;49.702;8.618;2023-03-12T11:20:26;15.60;;;12.63;;
3217;SDS011;1621;49.702;8.618;2023-03-12T11:22:53;15.20;;;13.03;;
3217;SDS011;1621;49.702;8.618;2023-03-12T11:25:20;16.87;;;13.50;;
3217;SDS011;1621;49.702;8.618;2023-03-12T11:27:48;14.67;;;12.57;;
3217;SDS011;1621;49.702;8.618;2023-03-12T11:30:16;15.43;;;13.27;;
3217;SDS011;1621;49.702;8.618;2023-03-12T11:32:48;14.83;;;12.83;;
3217;SDS011;1621;49.702;8.618;2023-03-12T11:35:16;14.70;;;12.73;;
3217;SDS011;1621;49.702;8.618;2023-03-12T11:37:49;15.93;;;12.20;;
3217;SDS011;1621;49.702;8.618;2023-03-12T11:40:17;15.07;;;12.73;;
3217;SDS011;1621;49.702;8.618;2023-03-12T11:42:52;18.20;;;13.63;;
3217;SDS011;1621;49.702;8.618;2023-03-12T11:45:24;15.87;;;12.63;;
3217;SDS011;1621;49.702;8.618;2023-03-12T11:47:57;15.37;;;13.23;;
3217;SDS011;1621;49.702;8.618;2023-03-12T11:50:25;16.67;;;13.10;;
3217;SDS011;1621;49.702;8.618;2023-03-12T11:52:57;14.80;;;13.03;;
3217;SDS011;1621;49.702;8.618;2023-03-12T11:55:37;16.87;;;12.30;;
3217;SDS011;1621;49.702;8.618;2023-03-12T11:58:11;16.10;;;14.23;;
3217;SDS011;1621;49.702;8.618;2023-03-12T12:00:40;18.13;;;13.97;;
3217;SDS011;1621;49.702;8.618;2023-03-12T12:05:54;15.20;;;13.50;;
3217;SDS011;1621;49.702;8.618;2023-03-12T12:08:26;14.83;;;12.83;;
3217;SDS011;1621;49.702;8.618;2023-03-12T12:10:58;15.73;;;13.17;;
3217;SDS011;1621;49.702;8.618;2023-03-12T12:13:27;15.60;;;13.40;;
3217;SDS011;1621;49.702;8.618;2023-03-12T12:15:58;15.00;;;12.97;;
3217;SDS011;1621;49.702;8.618;2023-03-12T12:18:33;16.83;;;13.83;;
3217;SDS011;1621;49.702;8.618;2023-03-12T12:21:07;16.07;;;14.37;;
3217;SDS011;1621;49.702;8.618;2023-03-12T12:23:40;17.07;;;14.23;;
3217;SDS011;1621;49.702;8.618;2023-03-12T12:26:10;14.33;;;12.83;;
3217;SDS011;1621;49.702;8.618;2023-03-12T12:28:41;15.63;;;13.40;;
3217;SDS011;1621;49.702;8.618;2023-03-12T12:34:00;14.10;;;12.33;;
3217;SDS011;1621;49.702;8.618;2023-03-12T12:36:32;16.10;;;12.93;;
3217;SDS011;1621;49.702;8.618;2023-03-12T12:38:59;13.83;;;12.33;;
3217;SDS011;1621;49.702;8.618;2023-03-12T12:41:30;19.07;;;15.00;;
3217;SDS011;1621;49.702;8.618;2023-03-12T12:43:58;17.93;;;14.30;;
3217;SDS011;1621;49.702;8.618;2023-03-12T12:46:27;16.37;;;13.13;;
3217;SDS011;1621;49.702;8.618;2023-03-12T12:48:56;20.80;;;14.27;;
3217;SDS011;1621;49.702;8.618;2023-03-12T12:51:25;16.47;;;14.70;;
3217;SDS011;1621;49.702;8.618;2023-03-12T12:53:56;16.43;;;14.30;;
3217;SDS011;1621;49.702;8.618;2023-03-12T12:56:27;15.57;;;14.00;;
3217;SDS011;1621;49.702;8.618;2023-03-12T12:58:56;19.83;;;14.40;;
3217;SDS011;1621;49.702;8.618;2023-03-12T13:01:27;19.47;;;15.70;;
3217;SDS011;1621;49.702;8.618;2023-03-12T13:03:54;16.37;;;13.70;;
3217;SDS011;1621;49.702;8.618;2023-03-12T13:06:23;15.40;;;12.60;;
3217;SDS011;1621;49.702;8.618;2023-03-12T13:09:13;15.80;;;13.13;;
3217;SDS011;1621;49.702;8.618;2023-03-12T13:11:42;16.37;;;13.60;;
3217;SDS011;1621;49.702;8.618;2023-03-12T13:14:18;15.63;;;12.77;;
3217;SDS011;1621;49.702;8.618;2023-03-12T13:16:45;14.73;;;12.93;;
3217;SDS011;1621;49.702;8.618;2023-03-12T13:19:20;18.00;;;13.37;;
3217;SDS011;1621;49.702;8.618;2023-03-12T13:21:50;18.10;;;13.30;;
3217;SDS011;1621;49.702;8.618;2023-03-12T13:24:20;16.40;;;12.97;;
3217;SDS011;1621;49.702;8.618;2023-03-12T13:26:50;17.83;;;14.00;;
3217;SDS011;1621;49.702;8.618;2023-03-12T13:29:21;16.07;;;12.70;;
3217;SDS011;1621;49.702;8.618;2023-03-12T13:31:47;16.73;;;13.23;;
3217;SDS011;1621;49.702;8.618;2023-03-12T13:36:59;14.23;;;12.67;;
3217;SDS011;1621;49.702;8.618;2023-03-12T13:39:29;15.30;;;12.20;;
3217;SDS011;1621;49.702;8.618;2023-03-12T13:41:56;14.20;;;12.40;;
3217;SDS011;1621;49.702;8.618;2023-03-12T13:44:27;15.77;;;12.73;;
3217;SDS011;1621;49.702;8.618;2023-03-12T13:46:56;17.33;;;12.30;;
3217;SDS011;1621;49.702;8.618;2023-03-12T13:49:23;15.10;;;12.93;;
3217;SDS011;1621;49.702;8.618;2023-03-12T13:52:00;14.80;;;12.10;;
3217;SDS011;1621;49.702;8.618;2023-03-12T13:54:30;16.40;;;12.10;;
3217;SDS011;1621;49.702;8.618;2023-03-12T13:56:57;17.50;;;13.33;;
3217;SDS011;1621;49.702;8.618;2023-03-12T13:59:25;15.90;;;11.90;;
3217;SDS011;1621;49.702;8.618;2023-03-12T14:01:53;19.67;;;12.03;;
3217;SDS011;1621;49.702;8.618;2023-03-12T14:04:21;15.63;;;11.30;;
3217;SDS011;1621;49.702;8.618;2023-03-12T14:06:52;17.30;;;11.40;;
3217;SDS011;1621;49.702;8.618;2023-03-12T14:09:21;16.00;;;11.27;;
3217;SDS011;1621;49.702;8.618;2023-03-12T14:11:55;19.53;;;11.73;;
3217;SDS011;1621;49.702;8.618;2023-03-12T14:14:28;16.83;;;11.00;;
3217;SDS011;1621;49.702;8.618;2023-03-12T14:16:58;21.40;;;13.20;;
3217;SDS011;1621;49.702;8.618;2023-03-12T14:19:25;18.03;;;12.67;;
3217;SDS011;1621;49.702;8.618;2023-03-12T14:21:52;18.40;;;11.57;;
3217;SDS011;1621;49.702;8.618;2023-03-12T14:24:22;17.77;;;11.43;;
3217;SDS011;1621;49.702;8.618;2023-03-12T14:26:49;16.87;;;6.90;;
3217;SDS011;1621;49.702;8.618;2023-03-12T14:29:19;20.33;;;6.67;;
3217;SDS011;1621;49.702;8.618;2023-03-12T14:31:46;16.37;;;5.97;;
3217;SDS011;1621;49.702;8.618;2023-03-12T14:34:15;21.07;;;6.27;;
3217;SDS011;1621;49.702;8.618;2023-03-12T14:36:45;14.20;;;5.67;;
3217;SDS011;1621;49.702;8.618;2023-03-12T14:39:17;15.50;;;6.67;;
3217;SDS011;1621;49.702;8.618;2023-03-12T14:41:48;16.20;;;5.70;;
3217;SDS011;1621;49.702;8.618;2023-03-12T14:44:20;18.27;;;6.40;;
3217;SDS011;1621;49.702;8.618;2023-03-12T14:46:54;17.37;;;6.10;;
3217;SDS011;1621;49.702;8.618;2023-03-12T14:49:20;12.43;;;5.37;;
3217;SDS011;1621;49.702;8.618;2023-03-12T14:51:46;13.93;;;5.33;;
3217;SDS011;1621;49.702;8.618;2023-03-12T14:54:17;12.37;;;5.77;;
3217;SDS011;1621;49.702;8.618;2023-03-12T14:56:44;13.90;;;5.53;;
3217;SDS011;1621;49.702;8.618;2023-03-12T14:59:20;16.57;;;5.50;;
3217;SDS011;1621;49.702;8.618;2023-03-12T15:01:47;11.43;;;5.03;;
3217;SDS011;1621;49.702;8.618;2023-03-12T15:04:14;14.50;;;5.50;;
3217;SDS011;1621;49.702;8.618;2023-03-12T15:06:42;11.53;;;5.30;;
3217;SDS011;1621;49.702;8.618;2023-03-12T15:09:13;17.83;;;5.30;;
3217;SDS011;1621;49.702;8.618;2023-03-12T15:11:41;18.27;;;5.77;;
3217;SDS011;1621;49.702;8.618;2023-03-12T15:14:11;14.90;;;6.30;;
3217;SDS011;1621;49.702;8.618;2023-03-12T15:16:40;14.67;;;6.93;;
3217;SDS011;1621;49.702;8.618;2023-03-12T15:19:08;19.43;;;6.27;;